createdAt,value
2017-07-08T00:00:16.709Z,0
2017-07-08T00:01:16.735Z,0
2017-07-08T00:02:16.440Z,0
2017-07-08T00:03:17.113Z,0
2017-07-08T00:04:17.140Z,0
2017-07-08T00:05:17.166Z,0
2017-07-08T00:06:16.556Z,0
2017-07-08T00:07:24.151Z,0
2017-07-08T00:08:16.916Z,0
2017-07-08T00:09:16.619Z,0
2017-07-08T00:10:16.647Z,0
2017-07-08T00:11:16.999Z,0
2017-07-08T00:12:16.706Z,0
2017-07-08T00:13:17.067Z,0
2017-07-08T00:14:17.506Z,0
2017-07-08T00:15:17.110Z,0
2017-07-08T00:16:17.133Z,0
2017-07-08T00:17:17.584Z,0
2017-07-08T00:18:17.512Z,0
2017-07-08T00:19:17.221Z,0
2017-07-08T00:20:16.917Z,0
2017-07-08T00:21:17.269Z,0
2017-07-08T00:22:17.296Z,0
2017-07-08T00:23:16.996Z,0
2017-07-08T00:24:17.673Z,0
2017-07-08T00:25:17.485Z,0
2017-07-08T00:26:17.406Z,0
2017-07-08T00:27:17.961Z,0
2017-07-08T00:28:17.964Z,0
2017-07-08T00:29:17.162Z,0
2017-07-08T00:30:17.517Z,0
2017-07-08T00:31:17.217Z,0
2017-07-08T00:32:17.245Z,0
2017-07-08T00:33:16.956Z,0
2017-07-08T00:34:17.300Z,0
2017-07-08T00:35:17.511Z,0
2017-07-08T00:36:17.349Z,0
2017-07-08T00:37:18.115Z,0
2017-07-08T00:38:17.832Z,0
2017-07-08T00:39:17.966Z,0
2017-07-08T00:40:17.654Z,0
2017-07-08T00:41:17.906Z,0
2017-07-08T00:42:18.186Z,0
2017-07-08T00:43:18.192Z,0
2017-07-08T00:44:18.223Z,0
2017-07-08T00:45:18.112Z,0
2017-07-08T00:46:18.278Z,0
2017-07-08T00:47:18.296Z,0
2017-07-08T00:48:18.331Z,0
2017-07-08T00:49:18.353Z,0
2017-07-08T00:50:17.826Z,0
2017-07-08T00:51:18.156Z,0
2017-07-08T00:52:18.105Z,0
2017-07-08T00:53:18.553Z,0
2017-07-08T00:54:18.165Z,0
2017-07-08T00:55:17.870Z,0
2017-07-08T00:56:18.548Z,0
2017-07-08T00:57:18.242Z,0
2017-07-08T00:58:17.943Z,0
2017-07-08T00:59:17.972Z,0
2017-07-08T01:00:17.998Z,0
2017-07-08T01:01:18.761Z,0
2017-07-08T01:02:18.591Z,0
2017-07-08T01:03:18.450Z,0
2017-07-08T01:04:18.447Z,0
2017-07-08T01:05:18.455Z,0
2017-07-08T01:06:18.929Z,0
2017-07-08T01:07:18.831Z,0
2017-07-08T01:08:18.534Z,0
2017-07-08T01:09:18.563Z,0
2017-07-08T01:10:18.577Z,0
2017-07-08T01:11:18.935Z,0
2017-07-08T01:12:18.316Z,0
2017-07-08T01:13:18.666Z,0
2017-07-08T01:14:18.697Z,0
2017-07-08T01:15:18.725Z,0
2017-07-08T01:16:18.747Z,0
2017-07-08T01:17:18.784Z,0
2017-07-08T01:18:18.804Z,0
2017-07-08T01:19:18.830Z,0
2017-07-08T01:20:19.182Z,0
2017-07-08T01:21:18.553Z,0
2017-07-08T01:22:18.906Z,0
2017-07-08T01:23:19.255Z,0
2017-07-08T01:24:19.278Z,0
2017-07-08T01:25:19.427Z,0
2017-07-08T01:26:18.365Z,0
2017-07-08T01:27:19.795Z,0
2017-07-08T01:28:19.067Z,0
2017-07-08T01:29:19.092Z,0
2017-07-08T01:30:19.120Z,0
2017-07-08T01:31:18.823Z,0
2017-07-08T01:32:19.627Z,0
2017-07-08T01:33:19.197Z,0
2017-07-08T01:34:18.901Z,0
2017-07-08T01:35:19.363Z,0
2017-07-08T01:36:19.672Z,0
2017-07-08T01:37:19.400Z,0
2017-07-08T01:38:19.467Z,0
2017-07-08T01:39:19.791Z,0
2017-07-08T01:40:20.075Z,0
2017-07-08T01:41:19.308Z,0
2017-07-08T01:42:19.109Z,0
2017-07-08T01:43:19.464Z,0
2017-07-08T01:44:19.877Z,0
2017-07-08T01:45:19.613Z,0
2017-07-08T01:46:19.612Z,0
2017-07-08T01:47:19.700Z,0
2017-07-08T01:48:20.044Z,0
2017-07-08T01:49:19.388Z,0
2017-07-08T01:50:19.737Z,0
2017-07-08T01:51:20.109Z,0
2017-07-08T01:52:19.904Z,0
2017-07-08T01:53:19.591Z,0
2017-07-08T01:54:19.844Z,0
2017-07-08T01:55:19.452Z,0
2017-07-08T01:56:19.852Z,0
2017-07-08T01:57:20.159Z,0
2017-07-08T01:58:19.735Z,0
2017-07-08T01:59:20.051Z,0
2017-07-08T02:00:20.225Z,0
2017-07-08T02:01:20.016Z,0
2017-07-08T02:02:20.280Z,0
2017-07-08T02:03:19.743Z,0
2017-07-08T02:04:20.099Z,0
2017-07-08T02:05:20.125Z,0
2017-07-08T02:06:20.124Z,0
2017-07-08T02:07:19.798Z,0
2017-07-08T02:08:20.134Z,0
2017-07-08T02:09:20.135Z,0
2017-07-08T02:10:19.742Z,0
2017-07-08T02:11:20.094Z,0
2017-07-08T02:12:20.223Z,0
2017-07-08T02:13:19.926Z,0
2017-07-08T02:14:19.751Z,0
2017-07-08T02:15:20.755Z,0
2017-07-08T02:16:20.485Z,0
2017-07-08T02:17:20.160Z,0
2017-07-08T02:18:20.579Z,0
2017-07-08T02:19:20.904Z,0
2017-07-08T02:20:20.044Z,0
2017-07-08T02:21:20.965Z,0
2017-07-08T02:22:20.582Z,0
2017-07-08T02:23:19.944Z,0
2017-07-08T02:24:20.974Z,0
2017-07-08T02:25:20.872Z,0
2017-07-08T02:26:20.782Z,0
2017-07-08T02:27:21.253Z,0
2017-07-08T02:28:20.488Z,0
2017-07-08T02:29:20.723Z,0
2017-07-08T02:30:21.286Z,0
2017-07-08T02:31:20.851Z,0
2017-07-08T02:32:20.679Z,0
2017-07-08T02:33:21.083Z,0
2017-07-08T02:34:21.117Z,0
2017-07-08T02:35:20.841Z,0
2017-07-08T02:36:20.517Z,0
2017-07-08T02:37:20.868Z,0
2017-07-08T02:38:20.897Z,0
2017-07-08T02:39:21.342Z,0
2017-07-08T02:40:21.371Z,0
2017-07-08T02:41:20.649Z,4
2017-07-08T02:42:21.381Z,4
2017-07-08T02:43:21.379Z,4
2017-07-08T02:44:21.378Z,4
2017-07-08T02:45:21.537Z,0
2017-07-08T02:46:21.507Z,4
2017-07-08T02:47:21.532Z,4
2017-07-08T02:48:21.635Z,4
2017-07-08T02:49:21.497Z,4
2017-07-08T02:50:21.484Z,4
2017-07-08T02:51:21.229Z,4
2017-07-08T02:52:21.669Z,8
2017-07-08T02:53:21.827Z,8
2017-07-08T02:54:21.388Z,8
2017-07-08T02:55:21.386Z,8
2017-07-08T02:56:21.522Z,12
2017-07-08T02:57:21.378Z,12
2017-07-08T02:58:21.411Z,12
2017-07-08T02:59:21.752Z,12
2017-07-08T03:00:21.126Z,16
2017-07-08T03:01:21.802Z,12
2017-07-08T03:02:21.508Z,16
2017-07-08T03:03:21.862Z,16
2017-07-08T03:04:21.234Z,20
2017-07-08T03:05:21.269Z,20
2017-07-08T03:06:20.961Z,20
2017-07-08T03:07:21.309Z,24
2017-07-08T03:08:21.665Z,24
2017-07-08T03:09:22.009Z,24
2017-07-08T03:10:22.036Z,28
2017-07-08T03:11:21.737Z,28
2017-07-08T03:12:21.445Z,32
2017-07-08T03:13:21.790Z,32
2017-07-08T03:14:22.313Z,36
2017-07-08T03:15:21.841Z,36
2017-07-08T03:16:21.865Z,40
2017-07-08T03:17:22.311Z,44
2017-07-08T03:18:21.929Z,44
2017-07-08T03:19:22.319Z,48
2017-07-08T03:20:21.969Z,48
2017-07-08T03:21:21.998Z,52
2017-07-08T03:22:21.699Z,48
2017-07-08T03:23:21.715Z,56
2017-07-08T03:24:21.747Z,56
2017-07-08T03:25:22.578Z,60
2017-07-08T03:26:22.826Z,64
2017-07-08T03:27:22.549Z,68
2017-07-08T03:28:21.855Z,72
2017-07-08T03:29:22.273Z,76
2017-07-08T03:30:22.272Z,80
2017-07-08T03:31:21.931Z,80
2017-07-08T03:32:22.280Z,80
2017-07-08T03:33:22.383Z,88
2017-07-08T03:34:22.002Z,88
2017-07-08T03:35:22.673Z,96
2017-07-08T03:36:22.434Z,96
2017-07-08T03:37:21.754Z,104
2017-07-08T03:38:22.751Z,104
2017-07-08T03:39:22.778Z,108
2017-07-08T03:40:22.803Z,108
2017-07-08T03:41:22.506Z,108
2017-07-08T03:42:22.321Z,116
2017-07-08T03:43:22.319Z,120
2017-07-08T03:44:22.583Z,120
2017-07-08T03:45:22.606Z,120
2017-07-08T03:46:22.952Z,120
2017-07-08T03:47:22.352Z,124
2017-07-08T03:48:23.005Z,124
2017-07-08T03:49:22.711Z,124
2017-07-08T03:50:22.489Z,128
2017-07-08T03:51:22.487Z,132
2017-07-08T03:52:22.779Z,140
2017-07-08T03:53:22.805Z,148
2017-07-08T03:54:23.157Z,152
2017-07-08T03:55:23.179Z,160
2017-07-08T03:56:22.878Z,176
2017-07-08T03:57:22.907Z,192
2017-07-08T03:58:23.258Z,212
2017-07-08T03:59:22.956Z,236
2017-07-08T04:00:23.312Z,260
2017-07-08T04:01:23.060Z,280
2017-07-08T04:02:23.350Z,292
2017-07-08T04:03:23.057Z,292
2017-07-08T04:04:23.085Z,272
2017-07-08T04:05:23.426Z,256
2017-07-08T04:06:23.133Z,240
2017-07-08T04:07:22.837Z,244
2017-07-08T04:08:23.507Z,256
2017-07-08T04:09:23.531Z,280
2017-07-08T04:10:23.245Z,312
2017-07-08T04:11:23.262Z,352
2017-07-08T04:12:22.638Z,348
2017-07-08T04:13:23.658Z,336
2017-07-08T04:14:23.015Z,332
2017-07-08T04:15:23.936Z,320
2017-07-08T04:16:23.788Z,324
2017-07-08T04:17:23.178Z,328
2017-07-08T04:18:23.573Z,324
2017-07-08T04:19:23.227Z,304
2017-07-08T04:20:23.866Z,284
2017-07-08T04:21:23.540Z,276
2017-07-08T04:22:23.860Z,264
2017-07-08T04:23:23.356Z,252
2017-07-08T04:24:23.585Z,248
2017-07-08T04:25:23.291Z,244
2017-07-08T04:26:22.988Z,236
2017-07-08T04:27:23.342Z,228
2017-07-08T04:28:24.016Z,228
2017-07-08T04:29:23.707Z,232
2017-07-08T04:30:23.736Z,232
2017-07-08T04:31:24.087Z,232
2017-07-08T04:32:23.876Z,236
2017-07-08T04:33:23.492Z,244
2017-07-08T04:34:23.843Z,244
2017-07-08T04:35:24.238Z,232
2017-07-08T04:36:23.890Z,228
2017-07-08T04:37:24.238Z,240
2017-07-08T04:38:23.290Z,260
2017-07-08T04:39:23.963Z,276
2017-07-08T04:40:24.311Z,288
2017-07-08T04:41:24.339Z,296
2017-07-08T04:42:24.041Z,300
2017-07-08T04:43:24.395Z,304
2017-07-08T04:44:24.421Z,312
2017-07-08T04:45:24.655Z,312
2017-07-08T04:46:24.014Z,316
2017-07-08T04:47:24.465Z,320
2017-07-08T04:48:24.518Z,328
2017-07-08T04:49:24.214Z,352
2017-07-08T04:50:24.674Z,392
2017-07-08T04:51:24.266Z,440
2017-07-08T04:52:23.642Z,468
2017-07-08T04:53:24.640Z,500
2017-07-08T04:54:24.871Z,500
2017-07-08T04:55:24.460Z,476
2017-07-08T04:56:24.167Z,460
2017-07-08T04:57:24.505Z,444
2017-07-08T04:58:23.791Z,420
2017-07-08T04:59:23.818Z,392
2017-07-08T05:00:23.843Z,364
2017-07-08T05:01:24.523Z,340
2017-07-08T05:02:23.897Z,324
2017-07-08T05:03:24.465Z,312
2017-07-08T05:04:24.587Z,308
2017-07-08T05:05:24.942Z,316
2017-07-08T05:06:24.316Z,328
2017-07-08T05:07:24.027Z,336
2017-07-08T05:08:24.686Z,348
2017-07-08T05:09:24.069Z,332
2017-07-08T05:10:25.077Z,312
2017-07-08T05:11:24.768Z,296
2017-07-08T05:12:24.794Z,296
2017-07-08T05:13:24.813Z,308
2017-07-08T05:14:24.839Z,336
2017-07-08T05:15:25.305Z,364
2017-07-08T05:16:24.564Z,396
2017-07-08T05:17:25.344Z,428
2017-07-08T05:18:24.951Z,456
2017-07-08T05:19:24.319Z,472
2017-07-08T05:20:25.066Z,504
2017-07-08T05:21:25.019Z,540
2017-07-08T05:22:24.713Z,572
2017-07-08T05:23:24.743Z,608
2017-07-08T05:24:24.447Z,644
2017-07-08T05:25:25.204Z,672
2017-07-08T05:26:25.460Z,692
2017-07-08T05:27:25.501Z,716
2017-07-08T05:28:25.237Z,744
2017-07-08T05:29:24.892Z,764
2017-07-08T05:30:25.335Z,812
2017-07-08T05:31:25.592Z,892
2017-07-08T05:32:25.403Z,968
2017-07-08T05:33:25.073Z,988
2017-07-08T05:34:25.381Z,988
2017-07-08T05:35:25.691Z,1000
2017-07-08T05:36:25.715Z,972
2017-07-08T05:37:25.737Z,936
2017-07-08T05:38:25.444Z,908
2017-07-08T05:39:25.475Z,896
2017-07-08T05:40:25.812Z,888
2017-07-08T05:41:25.195Z,884
2017-07-08T05:42:25.539Z,900
2017-07-08T05:43:25.343Z,920
2017-07-08T05:44:25.067Z,944
2017-07-08T05:45:25.946Z,972
2017-07-08T05:46:25.367Z,1016
2017-07-08T05:47:26.111Z,1188
2017-07-08T05:48:25.813Z,1328
2017-07-08T05:49:25.718Z,1240
2017-07-08T05:50:26.073Z,1116
2017-07-08T05:51:26.092Z,1072
2017-07-08T05:52:25.470Z,1024
2017-07-08T05:53:26.147Z,1060
2017-07-08T05:54:26.176Z,1044
2017-07-08T05:55:26.191Z,936
2017-07-08T05:56:25.572Z,812
2017-07-08T05:57:25.597Z,748
2017-07-08T05:58:26.270Z,696
2017-07-08T05:59:25.328Z,632
2017-07-08T06:00:26.003Z,620
2017-07-08T06:01:26.035Z,580
2017-07-08T06:02:26.051Z,524
2017-07-08T06:03:25.883Z,508
2017-07-08T06:04:25.843Z,536
2017-07-08T06:05:25.803Z,552
2017-07-08T06:06:26.236Z,544
2017-07-08T06:07:25.862Z,548
2017-07-08T06:08:26.518Z,588
2017-07-08T06:09:26.223Z,616
2017-07-08T06:10:26.257Z,644
2017-07-08T06:11:25.961Z,644
2017-07-08T06:12:25.653Z,684
2017-07-08T06:13:26.645Z,760
2017-07-08T06:14:26.355Z,844
2017-07-08T06:15:26.386Z,900
2017-07-08T06:16:26.729Z,876
2017-07-08T06:17:26.123Z,888
2017-07-08T06:18:26.459Z,888
2017-07-08T06:19:25.834Z,880
2017-07-08T06:20:26.187Z,824
2017-07-08T06:21:26.208Z,872
2017-07-08T06:22:26.570Z,920
2017-07-08T06:23:26.904Z,872
2017-07-08T06:24:26.738Z,820
2017-07-08T06:25:27.081Z,720
2017-07-08T06:26:26.784Z,668
2017-07-08T06:27:26.365Z,664
2017-07-08T06:28:26.169Z,700
2017-07-08T06:29:27.171Z,788
2017-07-08T06:30:26.497Z,940
2017-07-08T06:31:27.196Z,1116
2017-07-08T06:32:27.237Z,1164
2017-07-08T06:33:26.959Z,1164
2017-07-08T06:34:26.544Z,1264
2017-07-08T06:35:27.223Z,1588
2017-07-08T06:36:27.375Z,1656
2017-07-08T06:37:27.266Z,1464
2017-07-08T06:38:27.087Z,1340
2017-07-08T06:39:26.670Z,1204
2017-07-08T06:40:27.025Z,1124
2017-07-08T06:41:27.044Z,1188
2017-07-08T06:42:26.750Z,1160
2017-07-08T06:43:27.111Z,1212
2017-07-08T06:44:27.447Z,1284
2017-07-08T06:45:27.478Z,1344
2017-07-08T06:46:26.639Z,1444
2017-07-08T06:47:27.206Z,1692
2017-07-08T06:48:27.558Z,1720
2017-07-08T06:49:27.257Z,1596
2017-07-08T06:50:26.958Z,1596
2017-07-08T06:51:27.354Z,1512
2017-07-08T06:52:27.661Z,1396
2017-07-08T06:53:27.326Z,1484
2017-07-08T06:54:27.712Z,1616
2017-07-08T06:55:27.412Z,1688
2017-07-08T06:56:27.114Z,1764
2017-07-08T06:57:27.989Z,1716
2017-07-08T06:58:27.490Z,1748
2017-07-08T06:59:27.541Z,1848
2017-07-08T07:00:27.218Z,1792
2017-07-08T07:01:27.247Z,1460
2017-07-08T07:02:27.922Z,1180
2017-07-08T07:03:27.935Z,1004
2017-07-08T07:04:27.354Z,836
2017-07-08T07:05:27.480Z,876
2017-07-08T07:06:28.020Z,816
2017-07-08T07:07:28.050Z,732
2017-07-08T07:08:28.077Z,760
2017-07-08T07:09:27.452Z,768
2017-07-08T07:10:27.805Z,772
2017-07-08T07:11:27.506Z,748
2017-07-08T07:12:27.382Z,772
2017-07-08T07:13:27.559Z,880
2017-07-08T07:14:27.953Z,1016
2017-07-08T07:15:28.361Z,1136
2017-07-08T07:16:27.959Z,1296
2017-07-08T07:17:27.989Z,1584
2017-07-08T07:18:28.336Z,1904
2017-07-08T07:19:28.362Z,2052
2017-07-08T07:20:28.489Z,2236
2017-07-08T07:21:28.625Z,2472
2017-07-08T07:22:27.795Z,2656
2017-07-08T07:23:28.149Z,2560
2017-07-08T07:24:28.179Z,2560
2017-07-08T07:25:28.206Z,2352
2017-07-08T07:26:28.555Z,2232
2017-07-08T07:27:28.257Z,2156
2017-07-08T07:28:28.676Z,2112
2017-07-08T07:29:28.625Z,2052
2017-07-08T07:30:28.655Z,1972
2017-07-08T07:31:28.811Z,1908
2017-07-08T07:32:28.060Z,1872
2017-07-08T07:33:28.203Z,1888
2017-07-08T07:34:28.449Z,2032
2017-07-08T07:35:27.820Z,2192
2017-07-08T07:36:28.631Z,2320
2017-07-08T07:37:28.315Z,2396
2017-07-08T07:38:28.314Z,2432
2017-07-08T07:39:28.573Z,2480
2017-07-08T07:40:28.687Z,2548
2017-07-08T07:41:28.945Z,2576
2017-07-08T07:42:28.328Z,2560
2017-07-08T07:43:29.000Z,2596
2017-07-08T07:44:28.383Z,2640
2017-07-08T07:45:28.752Z,2680
2017-07-08T07:46:28.202Z,2680
2017-07-08T07:47:28.461Z,2672
2017-07-08T07:48:28.813Z,2672
2017-07-08T07:49:28.919Z,2616
2017-07-08T07:50:28.927Z,2492
2017-07-08T07:51:28.936Z,2360
2017-07-08T07:52:29.030Z,2304
2017-07-08T07:53:29.376Z,2296
2017-07-08T07:54:28.654Z,2348
2017-07-08T07:55:28.681Z,2396
2017-07-08T07:56:29.130Z,2484
2017-07-08T07:57:28.741Z,2584
2017-07-08T07:58:29.405Z,2764
2017-07-08T07:59:29.437Z,2888
2017-07-08T08:00:28.895Z,2988
2017-07-08T08:01:29.195Z,2992
2017-07-08T08:02:29.195Z,2972
2017-07-08T08:03:29.292Z,2840
2017-07-08T08:04:29.254Z,2728
2017-07-08T08:05:29.279Z,2752
2017-07-08T08:06:29.102Z,2860
2017-07-08T08:07:29.340Z,2856
2017-07-08T08:08:29.097Z,2728
2017-07-08T08:09:29.166Z,2556
2017-07-08T08:10:29.426Z,2344
2017-07-08T08:11:29.124Z,2040
2017-07-08T08:12:29.235Z,1700
2017-07-08T08:13:29.827Z,1444
2017-07-08T08:14:29.251Z,1412
2017-07-08T08:15:29.555Z,1488
2017-07-08T08:16:29.001Z,1564
2017-07-08T08:17:29.933Z,1788
2017-07-08T08:18:29.314Z,2044
2017-07-08T08:19:29.670Z,2204
2017-07-08T08:20:30.011Z,2364
2017-07-08T08:21:29.722Z,2392
2017-07-08T08:22:30.065Z,2120
2017-07-08T08:23:29.203Z,2064
2017-07-08T08:24:29.484Z,2536
2017-07-08T08:25:29.511Z,2760
2017-07-08T08:26:29.861Z,2708
2017-07-08T08:27:29.891Z,2600
2017-07-08T08:28:29.622Z,2612
2017-07-08T08:29:30.271Z,2484
2017-07-08T08:30:29.328Z,2300
2017-07-08T08:31:29.680Z,2508
2017-07-08T08:32:30.360Z,2672
2017-07-08T08:33:30.377Z,2368
2017-07-08T08:34:29.764Z,2620
2017-07-08T08:35:29.797Z,2576
2017-07-08T08:36:29.817Z,2424
2017-07-08T08:37:30.169Z,2112
2017-07-08T08:38:30.541Z,2140
2017-07-08T08:39:30.558Z,2340
2017-07-08T08:40:29.610Z,2660
2017-07-08T08:41:29.965Z,2804
2017-07-08T08:42:30.310Z,3000
2017-07-08T08:43:30.343Z,2816
2017-07-08T08:44:29.723Z,2980
2017-07-08T08:45:30.079Z,2984
2017-07-08T08:46:30.742Z,2784
2017-07-08T08:47:30.785Z,2932
2017-07-08T08:48:29.838Z,3040
2017-07-08T08:49:30.197Z,3024
2017-07-08T08:50:30.213Z,3000
2017-07-08T08:51:30.568Z,3008
2017-07-08T08:52:30.273Z,3064
2017-07-08T08:53:30.303Z,3140
2017-07-08T08:54:30.333Z,3240
2017-07-08T08:55:31.144Z,3236
2017-07-08T08:56:30.724Z,3016
2017-07-08T08:57:30.740Z,2692
2017-07-08T08:58:30.889Z,2552
2017-07-08T08:59:31.214Z,2600
2017-07-08T09:00:31.373Z,2628
2017-07-08T09:01:30.534Z,2556
2017-07-08T09:02:30.920Z,2288
2017-07-08T09:03:31.382Z,1932
2017-07-08T09:04:31.063Z,1740
2017-07-08T09:05:31.058Z,1676
2017-07-08T09:06:31.084Z,1708
2017-07-08T09:07:30.708Z,1828
2017-07-08T09:08:30.735Z,2076
2017-07-08T09:09:30.765Z,2440
2017-07-08T09:10:30.809Z,2796
2017-07-08T09:11:30.821Z,2968
2017-07-08T09:12:30.859Z,3088
2017-07-08T09:13:30.881Z,2996
2017-07-08T09:14:30.912Z,2936
2017-07-08T09:15:30.935Z,2828
2017-07-08T09:16:31.295Z,2752
2017-07-08T09:17:31.318Z,2476
2017-07-08T09:18:31.670Z,2248
2017-07-08T09:19:31.377Z,2544
2017-07-08T09:20:31.082Z,2332
2017-07-08T09:21:31.757Z,2528
2017-07-08T09:22:30.815Z,2792
2017-07-08T09:23:31.488Z,2440
2017-07-08T09:24:31.524Z,2616
2017-07-08T09:25:31.879Z,2304
2017-07-08T09:26:31.580Z,2092
2017-07-08T09:27:31.289Z,2180
2017-07-08T09:28:31.640Z,2400
2017-07-08T09:29:31.348Z,2828
2017-07-08T09:30:32.025Z,3396
2017-07-08T09:31:31.409Z,3568
2017-07-08T09:32:32.077Z,4316
2017-07-08T09:33:31.463Z,4164
2017-07-08T09:34:31.491Z,3744
2017-07-08T09:35:31.853Z,3364
2017-07-08T09:36:31.869Z,3428
2017-07-08T09:37:32.229Z,3740
2017-07-08T09:38:31.618Z,4084
2017-07-08T09:39:31.959Z,4164
2017-07-08T09:40:32.316Z,3856
2017-07-08T09:41:32.038Z,3216
2017-07-08T09:42:31.411Z,2908
2017-07-08T09:43:32.082Z,2860
2017-07-08T09:44:32.118Z,3260
2017-07-08T09:45:31.823Z,3368
2017-07-08T09:46:31.854Z,3788
2017-07-08T09:47:31.914Z,4412
2017-07-08T09:48:32.232Z,4796
2017-07-08T09:49:31.941Z,4700
2017-07-08T09:50:32.291Z,4316
2017-07-08T09:51:31.673Z,4144
2017-07-08T09:52:32.352Z,4068
2017-07-08T09:53:31.734Z,3960
2017-07-08T09:54:32.417Z,3400
2017-07-08T09:55:31.798Z,2736
2017-07-08T09:56:32.472Z,2216
2017-07-08T09:57:32.503Z,1908
2017-07-08T09:58:32.531Z,1580
2017-07-08T09:59:32.559Z,1300
2017-07-08T10:00:32.593Z,1088
2017-07-08T10:01:32.304Z,1004
2017-07-08T10:02:33.074Z,1016
2017-07-08T10:03:32.686Z,1076
2017-07-08T10:04:32.835Z,1104
2017-07-08T10:05:32.842Z,1012
2017-07-08T10:06:32.884Z,848
2017-07-08T10:07:33.013Z,752
2017-07-08T10:08:32.516Z,664
2017-07-08T10:09:32.868Z,644
2017-07-08T10:10:32.902Z,680
2017-07-08T10:11:32.604Z,708
2017-07-08T10:12:33.019Z,600
2017-07-08T10:13:32.659Z,512
2017-07-08T10:14:32.779Z,472
2017-07-08T10:15:32.426Z,472
2017-07-08T10:16:32.777Z,496
2017-07-08T10:17:33.433Z,508
2017-07-08T10:18:32.817Z,540
2017-07-08T10:19:33.493Z,520
2017-07-08T10:20:33.193Z,508
2017-07-08T10:21:32.942Z,488
2017-07-08T10:22:33.257Z,456
2017-07-08T10:23:32.969Z,420
2017-07-08T10:24:33.088Z,372
2017-07-08T10:25:33.677Z,352
2017-07-08T10:26:33.381Z,356
2017-07-08T10:27:33.414Z,324
2017-07-08T10:28:33.440Z,308
2017-07-08T10:29:33.152Z,280
2017-07-08T10:30:33.181Z,248
2017-07-08T10:31:33.536Z,228
2017-07-08T10:32:33.240Z,216
2017-07-08T10:33:33.649Z,204
2017-07-08T10:34:33.742Z,204
2017-07-08T10:35:33.717Z,200
2017-07-08T10:36:33.715Z,196
2017-07-08T10:37:34.043Z,208
2017-07-08T10:38:33.099Z,244
2017-07-08T10:39:34.108Z,308
2017-07-08T10:40:33.488Z,428
2017-07-08T10:41:33.516Z,672
2017-07-08T10:42:34.265Z,1232
2017-07-08T10:43:33.904Z,2340
2017-07-08T10:44:34.256Z,3428
2017-07-08T10:45:34.279Z,3500
2017-07-08T10:46:33.990Z,3504
2017-07-08T10:47:34.018Z,3392
2017-07-08T10:48:34.374Z,3324
2017-07-08T10:49:34.400Z,3712
2017-07-08T10:50:34.107Z,3868
2017-07-08T10:51:34.148Z,3288
2017-07-08T10:52:34.173Z,2708
2017-07-08T10:53:34.199Z,2392
2017-07-08T10:54:33.906Z,2008
2017-07-08T10:55:34.583Z,1816
2017-07-08T10:56:34.321Z,1992
2017-07-08T10:57:33.994Z,2176
2017-07-08T10:58:34.350Z,2184
2017-07-08T10:59:34.769Z,2020
2017-07-08T11:00:34.420Z,1784
2017-07-08T11:01:34.113Z,1420
2017-07-08T11:02:34.796Z,1284
2017-07-08T11:03:34.829Z,1228
2017-07-08T11:04:34.528Z,1484
2017-07-08T11:05:34.888Z,1932
2017-07-08T11:06:34.591Z,2172
2017-07-08T11:07:34.298Z,2612
2017-07-08T11:08:34.981Z,2916
2017-07-08T11:09:34.684Z,2680
2017-07-08T11:10:34.388Z,2420
2017-07-08T11:11:34.744Z,2040
2017-07-08T11:12:35.105Z,2092
2017-07-08T11:13:34.800Z,2216
2017-07-08T11:14:35.157Z,2016
2017-07-08T11:15:35.184Z,1948
2017-07-08T11:16:34.889Z,2216
2017-07-08T11:17:34.926Z,2492
2017-07-08T11:18:34.962Z,2632
2017-07-08T11:19:35.379Z,2804
2017-07-08T11:20:34.453Z,2712
2017-07-08T11:21:35.045Z,2720
2017-07-08T11:22:35.067Z,3012
2017-07-08T11:23:35.099Z,3796
2017-07-08T11:24:35.125Z,4640
2017-07-08T11:25:35.160Z,5256
2017-07-08T11:26:35.520Z,6008
2017-07-08T11:27:35.544Z,5728
2017-07-08T11:28:34.928Z,5508
2017-07-08T11:29:34.953Z,5480
2017-07-08T11:30:34.985Z,6056
2017-07-08T11:31:35.347Z,6652
2017-07-08T11:32:35.045Z,7124
2017-07-08T11:33:35.199Z,7724
2017-07-08T11:34:35.204Z,7432
2017-07-08T11:35:35.867Z,6712
2017-07-08T11:36:35.488Z,7304
2017-07-08T11:37:35.840Z,6368
2017-07-08T11:38:35.550Z,5584
2017-07-08T11:39:34.934Z,5332
2017-07-08T11:40:35.626Z,5716
2017-07-08T11:41:36.101Z,5776
2017-07-08T11:42:35.479Z,5656
2017-07-08T11:43:35.494Z,5844
2017-07-08T11:44:35.209Z,6652
2017-07-08T11:45:35.757Z,7004
2017-07-08T11:46:35.796Z,6564
2017-07-08T11:47:35.505Z,5936
2017-07-08T11:48:35.855Z,5204
2017-07-08T11:49:35.564Z,3748
2017-07-08T11:50:35.916Z,3384
2017-07-08T11:51:36.278Z,3700
2017-07-08T11:52:35.994Z,4844
2017-07-08T11:53:36.013Z,5196
2017-07-08T11:54:36.051Z,5620
2017-07-08T11:55:35.755Z,5052
2017-07-08T11:56:36.104Z,5124
2017-07-08T11:57:36.459Z,5160
2017-07-08T11:58:35.843Z,4968
2017-07-08T11:59:35.878Z,4792
2017-07-08T12:00:35.908Z,4428
2017-07-08T12:01:36.752Z,4000
2017-07-08T12:02:35.969Z,4644
2017-07-08T12:03:36.003Z,4556
2017-07-08T12:04:36.038Z,4152
2017-07-08T12:05:36.093Z,3960
2017-07-08T12:06:36.417Z,3784
2017-07-08T12:07:36.457Z,4040
2017-07-08T12:08:36.156Z,4260
2017-07-08T12:09:36.518Z,5488
2017-07-08T12:10:36.223Z,5728
2017-07-08T12:11:37.027Z,4992
2017-07-08T12:12:36.287Z,3876
2017-07-08T12:13:36.646Z,4640
2017-07-08T12:14:36.997Z,4528
2017-07-08T12:15:37.035Z,4652
2017-07-08T12:16:36.739Z,5544
2017-07-08T12:17:36.773Z,5748
2017-07-08T12:18:36.801Z,5384
2017-07-08T12:19:36.829Z,5116
2017-07-08T12:20:36.862Z,5772
2017-07-08T12:21:36.897Z,5468
2017-07-08T12:22:36.282Z,6616
2017-07-08T12:23:36.958Z,6008
2017-07-08T12:24:37.317Z,6668
2017-07-08T12:25:36.709Z,6780
2017-07-08T12:26:37.420Z,5364
2017-07-08T12:27:37.422Z,5812
2017-07-08T12:28:36.478Z,3900
2017-07-08T12:29:36.847Z,3212
2017-07-08T12:30:37.188Z,3832
2017-07-08T12:31:36.898Z,4912
2017-07-08T12:32:37.257Z,5608
2017-07-08T12:33:37.286Z,4720
2017-07-08T12:34:36.993Z,3028
2017-07-08T12:35:37.712Z,3132
2017-07-08T12:36:36.739Z,2652
2017-07-08T12:37:37.090Z,2304
2017-07-08T12:38:37.126Z,1932
2017-07-08T12:39:37.168Z,1804
2017-07-08T12:40:36.863Z,2104
2017-07-08T12:41:37.676Z,3636
2017-07-08T12:42:38.005Z,5648
2017-07-08T12:43:37.713Z,6236
2017-07-08T12:44:37.856Z,6100
2017-07-08T12:45:37.802Z,5904
2017-07-08T12:46:37.720Z,5856
2017-07-08T12:47:37.839Z,6224
2017-07-08T12:48:38.308Z,3124
2017-07-08T12:49:37.483Z,2264
2017-07-08T12:50:37.966Z,2332
2017-07-08T12:51:37.994Z,2560
2017-07-08T12:52:38.006Z,3052
2017-07-08T12:53:38.027Z,3552
2017-07-08T12:54:38.387Z,5472
2017-07-08T12:55:37.720Z,5632
2017-07-08T12:56:38.379Z,5568
2017-07-08T12:57:38.172Z,6252
2017-07-08T12:58:38.428Z,6836
2017-07-08T12:59:38.310Z,5836
2017-07-08T13:00:38.310Z,5436
2017-07-08T13:01:38.202Z,5620
2017-07-08T13:02:38.000Z,5936
2017-07-08T13:03:38.034Z,6296
2017-07-08T13:04:38.639Z,6084
2017-07-08T13:05:38.344Z,5760
2017-07-08T13:06:38.379Z,5856
2017-07-08T13:07:38.407Z,5712
2017-07-08T13:08:38.433Z,5844
2017-07-08T13:09:38.474Z,5648
2017-07-08T13:10:38.319Z,5528
2017-07-08T13:11:38.538Z,5700
2017-07-08T13:12:38.570Z,5836
2017-07-08T13:13:37.958Z,5988
2017-07-08T13:14:38.642Z,5460
2017-07-08T13:15:38.024Z,6112
2017-07-08T13:16:39.029Z,6068
2017-07-08T13:17:38.466Z,5388
2017-07-08T13:18:38.451Z,5464
2017-07-08T13:19:38.809Z,5864
2017-07-08T13:20:38.518Z,5600
2017-07-08T13:21:39.199Z,5832
2017-07-08T13:22:38.910Z,5896
2017-07-08T13:23:38.619Z,6248
2017-07-08T13:24:38.976Z,6560
2017-07-08T13:25:39.018Z,6720
2017-07-08T13:26:39.050Z,6512
2017-07-08T13:27:38.757Z,6952
2017-07-08T13:28:38.791Z,7276
2017-07-08T13:29:39.151Z,7796
2017-07-08T13:30:39.189Z,8320
2017-07-08T13:31:39.536Z,8608
2017-07-08T13:32:39.668Z,8912
2017-07-08T13:33:38.961Z,9176
2017-07-08T13:34:39.331Z,8832
2017-07-08T13:35:38.702Z,8236
2017-07-08T13:36:39.804Z,7748
2017-07-08T13:37:39.104Z,8044
2017-07-08T13:38:39.838Z,8644
2017-07-08T13:39:39.168Z,8852
2017-07-08T13:40:39.846Z,8164
2017-07-08T13:41:39.239Z,7120
2017-07-08T13:42:39.694Z,6332
2017-07-08T13:43:39.704Z,5440
2017-07-08T13:44:39.340Z,2404
2017-07-08T13:45:39.707Z,3508